sensor_id;sensor_type;location;lat;lon;timestamp;P1;durP1;ratioP1;P2;durP2;ratioP2
6626;SDS011;3349;49.830;8.748;2024-01-10T00:00:39;26.13;;;12.90;;
6626;SDS011;3349;49.830;8.748;2024-01-10T00:03:07;28.17;;;13.13;;
6626;SDS011;3349;49.830;8.748;2024-01-10T00:05:34;28.77;;;14.37;;
6626;SDS011;3349;49.830;8.748;2024-01-10T00:08:00;32.40;;;15.07;;
6626;SDS011;3349;49.830;8.748;2024-01-10T00:10:27;27.37;;;13.30;;
6626;SDS011;3349;49.830;8.748;2024-01-10T00:12:54;26.07;;;13.00;;
6626;SDS011;3349;49.830;8.748;2024-01-10T00:15:20;24.60;;;12.37;;
6626;SDS011;3349;49.830;8.748;2024-01-10T00:17:47;26.40;;;12.70;;
6626;SDS011;3349;49.830;8.748;2024-01-10T00:20:15;21.30;;;12.13;;
6626;SDS011;3349;49.830;8.748;2024-01-10T00:22:42;26.63;;;12.53;;
6626;SDS011;3349;49.830;8.748;2024-01-10T00:25:09;28.17;;;13.07;;
6626;SDS011;3349;49.830;8.748;2024-01-10T00:27:35;31.63;;;13.07;;
6626;SDS011;3349;49.830;8.748;2024-01-10T00:30:03;25.07;;;12.80;;
6626;SDS011;3349;49.830;8.748;2024-01-10T00:32:30;24.27;;;12.10;;
6626;SDS011;3349;49.830;8.748;2024-01-10T00:34:57;32.07;;;13.47;;
6626;SDS011;3349;49.830;8.748;2024-01-10T00:37:26;29.70;;;13.33;;
6626;SDS011;3349;49.830;8.748;2024-01-10T00:39:53;26.57;;;13.17;;
6626;SDS011;3349;49.830;8.748;2024-01-10T00:42:20;27.07;;;13.37;;
6626;SDS011;3349;49.830;8.748;2024-01-10T00:44:46;26.73;;;13.23;;
6626;SDS011;3349;49.830;8.748;2024-01-10T00:47:13;24.73;;;12.63;;
6626;SDS011;3349;49.830;8.748;2024-01-10T00:49:40;27.87;;;13.67;;
6626;SDS011;3349;49.830;8.748;2024-01-10T00:52:06;26.53;;;13.03;;
6626;SDS011;3349;49.830;8.748;2024-01-10T00:54:34;28.87;;;13.27;;
6626;SDS011;3349;49.830;8.748;2024-01-10T00:57:01;28.87;;;13.80;;
6626;SDS011;3349;49.830;8.748;2024-01-10T00:59:28;25.50;;;13.43;;
6626;SDS011;3349;49.830;8.748;2024-01-10T01:01:54;29.33;;;14.23;;
6626;SDS011;3349;49.830;8.748;2024-01-10T01:04:21;28.80;;;14.20;;
6626;SDS011;3349;49.830;8.748;2024-01-10T01:06:48;35.30;;;13.73;;
6626;SDS011;3349;49.830;8.748;2024-01-10T01:09:14;31.47;;;13.73;;
6626;SDS011;3349;49.830;8.748;2024-01-10T01:11:42;31.03;;;14.10;;
6626;SDS011;3349;49.830;8.748;2024-01-10T01:14:09;30.87;;;14.50;;
6626;SDS011;3349;49.830;8.748;2024-01-10T01:16:36;25.03;;;12.87;;
6626;SDS011;3349;49.830;8.748;2024-01-10T01:19:02;26.43;;;13.70;;
6626;SDS011;3349;49.830;8.748;2024-01-10T01:21:30;27.93;;;13.90;;
6626;SDS011;3349;49.830;8.748;2024-01-10T01:23:56;30.10;;;14.20;;
6626;SDS011;3349;49.830;8.748;2024-01-10T01:26:23;28.80;;;14.57;;
6626;SDS011;3349;49.830;8.748;2024-01-10T01:28:51;31.20;;;13.87;;
6626;SDS011;3349;49.830;8.748;2024-01-10T01:31:18;29.07;;;14.87;;
6626;SDS011;3349;49.830;8.748;2024-01-10T01:33:44;34.13;;;14.07;;
6626;SDS011;3349;49.830;8.748;2024-01-10T01:36:11;26.40;;;13.47;;
6626;SDS011;3349;49.830;8.748;2024-01-10T01:38:38;28.20;;;13.40;;
6626;SDS011;3349;49.830;8.748;2024-01-10T01:41:05;31.80;;;14.27;;
6626;SDS011;3349;49.830;8.748;2024-01-10T01:43:32;29.93;;;13.90;;
6626;SDS011;3349;49.830;8.748;2024-01-10T01:46:00;29.63;;;14.33;;
6626;SDS011;3349;49.830;8.748;2024-01-10T01:48:28;29.70;;;14.03;;
6626;SDS011;3349;49.830;8.748;2024-01-10T01:50:56;28.93;;;14.37;;
6626;SDS011;3349;49.830;8.748;2024-01-10T01:53:26;33.03;;;15.10;;
6626;SDS011;3349;49.830;8.748;2024-01-10T01:55:53;27.83;;;13.67;;
6626;SDS011;3349;49.830;8.748;2024-01-10T01:58:22;29.70;;;13.73;;
6626;SDS011;3349;49.830;8.748;2024-01-10T02:00:49;32.03;;;15.27;;
6626;SDS011;3349;49.830;8.748;2024-01-10T02:03:18;33.17;;;14.23;;
6626;SDS011;3349;49.830;8.748;2024-01-10T02:05:46;27.67;;;14.23;;
6626;SDS011;3349;49.830;8.748;2024-01-10T02:08:13;30.17;;;14.30;;
6626;SDS011;3349;49.830;8.748;2024-01-10T02:10:40;32.70;;;14.50;;
6626;SDS011;3349;49.830;8.748;2024-01-10T02:13:07;31.37;;;16.30;;
6626;SDS011;3349;49.830;8.748;2024-01-10T02:15:36;27.07;;;14.27;;
6626;SDS011;3349;49.830;8.748;2024-01-10T02:18:04;29.70;;;15.23;;
6626;SDS011;3349;49.830;8.748;2024-01-10T02:20:32;26.53;;;14.67;;
6626;SDS011;3349;49.830;8.748;2024-01-10T02:22:59;25.90;;;14.03;;
6626;SDS011;3349;49.830;8.748;2024-01-10T02:25:27;31.70;;;14.37;;
6626;SDS011;3349;49.830;8.748;2024-01-10T02:27:54;32.43;;;14.73;;
6626;SDS011;3349;49.830;8.748;2024-01-10T02:30:20;31.47;;;15.53;;
6626;SDS011;3349;49.830;8.748;2024-01-10T02:32:47;33.37;;;16.00;;
6626;SDS011;3349;49.830;8.748;2024-01-10T02:35:14;30.70;;;15.03;;
6626;SDS011;3349;49.830;8.748;2024-01-10T02:37:40;30.40;;;15.17;;
6626;SDS011;3349;49.830;8.748;2024-01-10T02:40:08;33.00;;;15.53;;
6626;SDS011;3349;49.830;8.748;2024-01-10T02:42:36;35.83;;;16.07;;
6626;SDS011;3349;49.830;8.748;2024-01-10T02:45:03;30.27;;;15.20;;
6626;SDS011;3349;49.830;8.748;2024-01-10T02:47:30;31.90;;;15.47;;
6626;SDS011;3349;49.830;8.748;2024-01-10T02:49:57;28.97;;;14.70;;
6626;SDS011;3349;49.830;8.748;2024-01-10T02:52:23;31.57;;;16.30;;
6626;SDS011;3349;49.830;8.748;2024-01-10T02:54:50;31.80;;;16.47;;
6626;SDS011;3349;49.830;8.748;2024-01-10T02:57:17;33.17;;;16.03;;
6626;SDS011;3349;49.830;8.748;2024-01-10T02:59:45;31.17;;;15.13;;
6626;SDS011;3349;49.830;8.748;2024-01-10T03:02:11;32.20;;;15.90;;
6626;SDS011;3349;49.830;8.748;2024-01-10T03:04:38;34.07;;;15.57;;
6626;SDS011;3349;49.830;8.748;2024-01-10T03:07:05;32.07;;;15.50;;
6626;SDS011;3349;49.830;8.748;2024-01-10T03:09:31;28.73;;;15.10;;
6626;SDS011;3349;49.830;8.748;2024-01-10T03:11:58;32.97;;;16.10;;
6626;SDS011;3349;49.830;8.748;2024-01-10T03:14:25;32.57;;;16.23;;
6626;SDS011;3349;49.830;8.748;2024-01-10T03:16:53;31.07;;;15.27;;
6626;SDS011;3349;49.830;8.748;2024-01-10T03:19:19;31.37;;;16.67;;
6626;SDS011;3349;49.830;8.748;2024-01-10T03:21:46;31.40;;;16.83;;
6626;SDS011;3349;49.830;8.748;2024-01-10T03:24:13;31.43;;;15.57;;
6626;SDS011;3349;49.830;8.748;2024-01-10T03:26:39;29.70;;;15.03;;
6626;SDS011;3349;49.830;8.748;2024-01-10T03:29:06;33.53;;;15.83;;
6626;SDS011;3349;49.830;8.748;2024-01-10T03:31:33;32.83;;;16.33;;
6626;SDS011;3349;49.830;8.748;2024-01-10T03:34:01;36.60;;;17.13;;
6626;SDS011;3349;49.830;8.748;2024-01-10T03:36:27;32.67;;;15.60;;
6626;SDS011;3349;49.830;8.748;2024-01-10T03:38:54;33.40;;;16.03;;
6626;SDS011;3349;49.830;8.748;2024-01-10T03:41:21;32.43;;;15.87;;
6626;SDS011;3349;49.830;8.748;2024-01-10T03:43:47;34.07;;;16.63;;
6626;SDS011;3349;49.830;8.748;2024-01-10T03:46:15;33.70;;;15.53;;
6626;SDS011;3349;49.830;8.748;2024-01-10T03:48:42;29.33;;;15.93;;
6626;SDS011;3349;49.830;8.748;2024-01-10T03:51:14;31.27;;;15.53;;
6626;SDS011;3349;49.830;8.748;2024-01-10T03:53:41;34.63;;;17.20;;
6626;SDS011;3349;49.830;8.748;2024-01-10T03:56:08;33.27;;;15.87;;
6626;SDS011;3349;49.830;8.748;2024-01-10T03:58:34;28.97;;;16.93;;
6626;SDS011;3349;49.830;8.748;2024-01-10T04:01:03;30.40;;;16.60;;
6626;SDS011;3349;49.830;8.748;2024-01-10T04:03:31;36.37;;;16.90;;
6626;SDS011;3349;49.830;8.748;2024-01-10T04:05:58;33.30;;;16.40;;
6626;SDS011;3349;49.830;8.748;2024-01-10T04:08:25;32.17;;;15.63;;
6626;SDS011;3349;49.830;8.748;2024-01-10T04:10:52;33.17;;;16.63;;
6626;SDS011;3349;49.830;8.748;2024-01-10T04:13:19;37.33;;;16.67;;
6626;SDS011;3349;49.830;8.748;2024-01-10T04:15:46;33.87;;;16.70;;
6626;SDS011;3349;49.830;8.748;2024-01-10T04:18:12;31.90;;;16.47;;
6626;SDS011;3349;49.830;8.748;2024-01-10T04:20:39;36.37;;;17.03;;
6626;SDS011;3349;49.830;8.748;2024-01-10T04:23:07;32.20;;;16.13;;
6626;SDS011;3349;49.830;8.748;2024-01-10T04:25:35;31.60;;;15.77;;
6626;SDS011;3349;49.830;8.748;2024-01-10T04:28:01;34.73;;;16.83;;
6626;SDS011;3349;49.830;8.748;2024-01-10T04:30:28;32.93;;;15.97;;
6626;SDS011;3349;49.830;8.748;2024-01-10T04:32:55;35.80;;;16.63;;
6626;SDS011;3349;49.830;8.748;2024-01-10T04:35:21;31.67;;;15.67;;
6626;SDS011;3349;49.830;8.748;2024-01-10T04:37:48;32.40;;;16.53;;
6626;SDS011;3349;49.830;8.748;2024-01-10T04:40:15;31.03;;;16.50;;
6626;SDS011;3349;49.830;8.748;2024-01-10T04:42:43;34.30;;;18.23;;
6626;SDS011;3349;49.830;8.748;2024-01-10T04:45:11;36.23;;;18.37;;
6626;SDS011;3349;49.830;8.748;2024-01-10T04:47:38;33.23;;;16.60;;
6626;SDS011;3349;49.830;8.748;2024-01-10T04:50:05;33.87;;;17.03;;
6626;SDS011;3349;49.830;8.748;2024-01-10T04:52:32;36.23;;;16.20;;
6626;SDS011;3349;49.830;8.748;2024-01-10T04:54:59;35.83;;;17.17;;
6626;SDS011;3349;49.830;8.748;2024-01-10T04:57:27;35.73;;;16.90;;
6626;SDS011;3349;49.830;8.748;2024-01-10T04:59:56;35.53;;;17.53;;
6626;SDS011;3349;49.830;8.748;2024-01-10T05:02:22;32.43;;;17.17;;
6626;SDS011;3349;49.830;8.748;2024-01-10T05:04:49;36.43;;;17.27;;
6626;SDS011;3349;49.830;8.748;2024-01-10T05:07:16;34.83;;;16.23;;
6626;SDS011;3349;49.830;8.748;2024-01-10T05:09:42;30.63;;;17.57;;
6626;SDS011;3349;49.830;8.748;2024-01-10T05:12:09;31.93;;;17.13;;
6626;SDS011;3349;49.830;8.748;2024-01-10T05:14:36;33.53;;;16.83;;
6626;SDS011;3349;49.830;8.748;2024-01-10T05:17:04;34.63;;;16.80;;
6626;SDS011;3349;49.830;8.748;2024-01-10T05:19:30;33.00;;;16.53;;
6626;SDS011;3349;49.830;8.748;2024-01-10T05:21:57;36.97;;;17.50;;
6626;SDS011;3349;49.830;8.748;2024-01-10T05:24:24;32.23;;;16.57;;
6626;SDS011;3349;49.830;8.748;2024-01-10T05:26:51;35.77;;;16.80;;
6626;SDS011;3349;49.830;8.748;2024-01-10T05:29:18;37.60;;;17.17;;
6626;SDS011;3349;49.830;8.748;2024-01-10T05:31:44;36.03;;;16.23;;
6626;SDS011;3349;49.830;8.748;2024-01-10T05:34:12;36.43;;;17.93;;
6626;SDS011;3349;49.830;8.748;2024-01-10T05:36:39;36.20;;;17.40;;
6626;SDS011;3349;49.830;8.748;2024-01-10T05:39:06;36.43;;;17.77;;
6626;SDS011;3349;49.830;8.748;2024-01-10T05:41:32;36.20;;;18.13;;
6626;SDS011;3349;49.830;8.748;2024-01-10T05:43:59;34.03;;;16.73;;
6626;SDS011;3349;49.830;8.748;2024-01-10T05:46:26;35.00;;;18.33;;
6626;SDS011;3349;49.830;8.748;2024-01-10T05:48:53;36.23;;;18.10;;
6626;SDS011;3349;49.830;8.748;2024-01-10T05:51:21;35.27;;;18.07;;
6626;SDS011;3349;49.830;8.748;2024-01-10T05:53:48;33.63;;;16.90;;
6626;SDS011;3349;49.830;8.748;2024-01-10T05:56:14;36.10;;;17.13;;
6626;SDS011;3349;49.830;8.748;2024-01-10T05:58:41;40.07;;;17.23;;
6626;SDS011;3349;49.830;8.748;2024-01-10T06:01:07;34.80;;;17.03;;
6626;SDS011;3349;49.830;8.748;2024-01-10T06:03:35;35.27;;;16.93;;
6626;SDS011;3349;49.830;8.748;2024-01-10T06:06:02;37.67;;;17.53;;
6626;SDS011;3349;49.830;8.748;2024-01-10T06:08:31;35.13;;;17.33;;
6626;SDS011;3349;49.830;8.748;2024-01-10T06:10:58;36.13;;;17.37;;
6626;SDS011;3349;49.830;8.748;2024-01-10T06:13:25;37.93;;;17.03;;
6626;SDS011;3349;49.830;8.748;2024-01-10T06:15:51;38.47;;;17.23;;
6626;SDS011;3349;49.830;8.748;2024-01-10T06:18:18;38.77;;;17.57;;
6626;SDS011;3349;49.830;8.748;2024-01-10T06:20:45;36.83;;;16.93;;
6626;SDS011;3349;49.830;8.748;2024-01-10T06:23:11;32.50;;;16.17;;
6626;SDS011;3349;49.830;8.748;2024-01-10T06:25:39;33.07;;;17.60;;
6626;SDS011;3349;49.830;8.748;2024-01-10T06:28:06;37.63;;;17.13;;
6626;SDS011;3349;49.830;8.748;2024-01-10T06:30:33;33.27;;;17.00;;
6626;SDS011;3349;49.830;8.748;2024-01-10T06:33:00;34.60;;;17.47;;
6626;SDS011;3349;49.830;8.748;2024-01-10T06:35:27;34.80;;;17.23;;
6626;SDS011;3349;49.830;8.748;2024-01-10T06:37:54;40.57;;;17.83;;
6626;SDS011;3349;49.830;8.748;2024-01-10T06:40:21;37.37;;;15.70;;
6626;SDS011;3349;49.830;8.748;2024-01-10T06:42:49;34.27;;;18.23;;
6626;SDS011;3349;49.830;8.748;2024-01-10T06:45:15;36.57;;;17.57;;
6626;SDS011;3349;49.830;8.748;2024-01-10T06:47:42;40.40;;;20.27;;
6626;SDS011;3349;49.830;8.748;2024-01-10T06:50:09;53.17;;;24.37;;
6626;SDS011;3349;49.830;8.748;2024-01-10T06:52:36;48.50;;;24.40;;
6626;SDS011;3349;49.830;8.748;2024-01-10T06:55:03;37.90;;;19.17;;
6626;SDS011;3349;49.830;8.748;2024-01-10T06:57:31;36.83;;;17.77;;
6626;SDS011;3349;49.830;8.748;2024-01-10T06:59:59;37.83;;;17.70;;
6626;SDS011;3349;49.830;8.748;2024-01-10T07:02:28;34.73;;;17.33;;
6626;SDS011;3349;49.830;8.748;2024-01-10T07:04:55;37.70;;;18.13;;
6626;SDS011;3349;49.830;8.748;2024-01-10T07:07:21;39.33;;;18.57;;
6626;SDS011;3349;49.830;8.748;2024-01-10T07:09:48;35.70;;;18.57;;
6626;SDS011;3349;49.830;8.748;2024-01-10T07:12:15;38.60;;;19.03;;
6626;SDS011;3349;49.830;8.748;2024-01-10T07:14:41;38.07;;;18.60;;
6626;SDS011;3349;49.830;8.748;2024-01-10T07:17:09;38.80;;;18.53;;
6626;SDS011;3349;49.830;8.748;2024-01-10T07:19:36;38.33;;;18.30;;
6626;SDS011;3349;49.830;8.748;2024-01-10T07:22:03;42.80;;;20.97;;
6626;SDS011;3349;49.830;8.748;2024-01-10T07:24:30;39.10;;;20.10;;
6626;SDS011;3349;49.830;8.748;2024-01-10T07:26:56;39.40;;;18.30;;
6626;SDS011;3349;49.830;8.748;2024-01-10T07:29:24;35.43;;;17.27;;
6626;SDS011;3349;49.830;8.748;2024-01-10T07:31:50;34.90;;;18.50;;
6626;SDS011;3349;49.830;8.748;2024-01-10T07:34:19;41.20;;;20.07;;
6626;SDS011;3349;49.830;8.748;2024-01-10T07:36:46;37.30;;;18.13;;
6626;SDS011;3349;49.830;8.748;2024-01-10T07:39:13;38.97;;;17.63;;
6626;SDS011;3349;49.830;8.748;2024-01-10T07:41:43;39.97;;;17.93;;
6626;SDS011;3349;49.830;8.748;2024-01-10T07:44:10;39.17;;;18.33;;
6626;SDS011;3349;49.830;8.748;2024-01-10T07:46:37;37.07;;;18.07;;
6626;SDS011;3349;49.830;8.748;2024-01-10T07:49:04;42.57;;;19.87;;
6626;SDS011;3349;49.830;8.748;2024-01-10T07:51:32;40.97;;;19.50;;
6626;SDS011;3349;49.830;8.748;2024-01-10T07:53:58;42.90;;;20.27;;
6626;SDS011;3349;49.830;8.748;2024-01-10T07:56:25;38.43;;;18.67;;
6626;SDS011;3349;49.830;8.748;2024-01-10T07:58:52;34.87;;;18.33;;
6626;SDS011;3349;49.830;8.748;2024-01-10T08:01:18;41.23;;;19.93;;
6626;SDS011;3349;49.830;8.748;2024-01-10T08:03:46;45.63;;;21.47;;
6626;SDS011;3349;49.830;8.748;2024-01-10T08:06:13;46.30;;;22.20;;
6626;SDS011;3349;49.830;8.748;2024-01-10T08:08:41;42.10;;;20.27;;
6626;SDS011;3349;49.830;8.748;2024-01-10T08:11:07;45.07;;;21.67;;
6626;SDS011;3349;49.830;8.748;2024-01-10T08:13:34;41.13;;;20.57;;
6626;SDS011;3349;49.830;8.748;2024-01-10T08:16:01;35.43;;;19.40;;
6626;SDS011;3349;49.830;8.748;2024-01-10T08:18:28;40.43;;;20.43;;
6626;SDS011;3349;49.830;8.748;2024-01-10T08:20:55;37.07;;;18.60;;
6626;SDS011;3349;49.830;8.748;2024-01-10T08:23:22;39.27;;;18.10;;
6626;SDS011;3349;49.830;8.748;2024-01-10T08:25:50;37.40;;;19.30;;
6626;SDS011;3349;49.830;8.748;2024-01-10T08:28:17;38.37;;;19.07;;
6626;SDS011;3349;49.830;8.748;2024-01-10T08:30:42;38.93;;;20.07;;
6626;SDS011;3349;49.830;8.748;2024-01-10T08:33:10;40.00;;;19.97;;
6626;SDS011;3349;49.830;8.748;2024-01-10T08:35:37;34.30;;;17.37;;
6626;SDS011;3349;49.830;8.748;2024-01-10T08:38:04;35.53;;;17.03;;
6626;SDS011;3349;49.830;8.748;2024-01-10T08:40:32;37.63;;;18.20;;
6626;SDS011;3349;49.830;8.748;2024-01-10T08:43:00;39.70;;;18.67;;
6626;SDS011;3349;49.830;8.748;2024-01-10T08:45:27;34.53;;;16.73;;
6626;SDS011;3349;49.830;8.748;2024-01-10T08:47:54;36.53;;;18.20;;
6626;SDS011;3349;49.830;8.748;2024-01-10T08:50:22;34.57;;;17.70;;
6626;SDS011;3349;49.830;8.748;2024-01-10T08:52:49;34.30;;;17.80;;
6626;SDS011;3349;49.830;8.748;2024-01-10T08:55:16;37.27;;;18.10;;
6626;SDS011;3349;49.830;8.748;2024-01-10T08:57:42;34.90;;;17.97;;
6626;SDS011;3349;49.830;8.748;2024-01-10T09:00:11;35.07;;;17.70;;
6626;SDS011;3349;49.830;8.748;2024-01-10T09:02:41;38.77;;;18.37;;
6626;SDS011;3349;49.830;8.748;2024-01-10T09:05:08;44.03;;;21.70;;
6626;SDS011;3349;49.830;8.748;2024-01-10T09:07:35;32.27;;;16.80;;
6626;SDS011;3349;49.830;8.748;2024-01-10T09:10:02;46.07;;;19.87;;
6626;SDS011;3349;49.830;8.748;2024-01-10T09:12:30;51.10;;;26.00;;
6626;SDS011;3349;49.830;8.748;2024-01-10T09:14:57;39.23;;;20.87;;
6626;SDS011;3349;49.830;8.748;2024-01-10T09:17:25;44.40;;;21.20;;
6626;SDS011;3349;49.830;8.748;2024-01-10T09:19:52;40.23;;;20.67;;
6626;SDS011;3349;49.830;8.748;2024-01-10T09:22:19;41.33;;;21.20;;
6626;SDS011;3349;49.830;8.748;2024-01-10T09:24:46;38.67;;;19.77;;
6626;SDS011;3349;49.830;8.748;2024-01-10T09:27:13;35.67;;;19.67;;
6626;SDS011;3349;49.830;8.748;2024-01-10T09:29:39;44.60;;;21.63;;
6626;SDS011;3349;49.830;8.748;2024-01-10T09:32:06;37.13;;;19.70;;
6626;SDS011;3349;49.830;8.748;2024-01-10T09:34:34;33.07;;;18.57;;
6626;SDS011;3349;49.830;8.748;2024-01-10T09:37:00;35.13;;;18.20;;
6626;SDS011;3349;49.830;8.748;2024-01-10T09:39:27;30.27;;;16.63;;
6626;SDS011;3349;49.830;8.748;2024-01-10T09:41:54;36.27;;;17.10;;
6626;SDS011;3349;49.830;8.748;2024-01-10T09:44:22;35.27;;;17.07;;
6626;SDS011;3349;49.830;8.748;2024-01-10T09:46:50;37.13;;;17.23;;
6626;SDS011;3349;49.830;8.748;2024-01-10T09:49:18;34.10;;;17.40;;
6626;SDS011;3349;49.830;8.748;2024-01-10T09:51:48;33.50;;;18.70;;
6626;SDS011;3349;49.830;8.748;2024-01-10T09:54:15;32.23;;;16.97;;
6626;SDS011;3349;49.830;8.748;2024-01-10T09:56:44;31.73;;;16.47;;
6626;SDS011;3349;49.830;8.748;2024-01-10T09:59:11;28.60;;;15.90;;
6626;SDS011;3349;49.830;8.748;2024-01-10T10:01:38;33.03;;;16.67;;
6626;SDS011;3349;49.830;8.748;2024-01-10T10:04:05;29.70;;;15.97;;
6626;SDS011;3349;49.830;8.748;2024-01-10T10:06:35;31.27;;;18.03;;
6626;SDS011;3349;49.830;8.748;2024-01-10T10:09:03;34.70;;;17.00;;
6626;SDS011;3349;49.830;8.748;2024-01-10T10:11:30;29.10;;;16.17;;
6626;SDS011;3349;49.830;8.748;2024-01-10T10:13:56;30.77;;;16.90;;
6626;SDS011;3349;49.830;8.748;2024-01-10T10:16:39;34.03;;;17.33;;
6626;SDS011;3349;49.830;8.748;2024-01-10T10:19:06;31.97;;;16.97;;
6626;SDS011;3349;49.830;8.748;2024-01-10T10:21:34;28.50;;;16.57;;
6626;SDS011;3349;49.830;8.748;2024-01-10T10:24:01;32.20;;;17.50;;
6626;SDS011;3349;49.830;8.748;2024-01-10T10:26:31;31.00;;;15.83;;
6626;SDS011;3349;49.830;8.748;2024-01-10T10:28:59;31.57;;;16.37;;
6626;SDS011;3349;49.830;8.748;2024-01-10T10:31:25;36.73;;;16.90;;
6626;SDS011;3349;49.830;8.748;2024-01-10T10:33:54;34.73;;;16.23;;
6626;SDS011;3349;49.830;8.748;2024-01-10T10:36:20;35.87;;;17.47;;
6626;SDS011;3349;49.830;8.748;2024-01-10T10:38:47;34.43;;;17.23;;
6626;SDS011;3349;49.830;8.748;2024-01-10T10:41:15;31.50;;;16.87;;
6626;SDS011;3349;49.830;8.748;2024-01-10T10:43:46;30.80;;;17.23;;
6626;SDS011;3349;49.830;8.748;2024-01-10T10:46:15;32.33;;;17.03;;
6626;SDS011;3349;49.830;8.748;2024-01-10T10:48:42;31.03;;;17.13;;
6626;SDS011;3349;49.830;8.748;2024-01-10T10:51:10;30.37;;;16.87;;
6626;SDS011;3349;49.830;8.748;2024-01-10T10:53:38;32.10;;;17.30;;
6626;SDS011;3349;49.830;8.748;2024-01-10T10:56:06;31.60;;;17.10;;
6626;SDS011;3349;49.830;8.748;2024-01-10T10:58:34;29.30;;;16.37;;
6626;SDS011;3349;49.830;8.748;2024-01-10T11:01:05;32.50;;;16.77;;
6626;SDS011;3349;49.830;8.748;2024-01-10T11:03:34;33.83;;;17.47;;
6626;SDS011;3349;49.830;8.748;2024-01-10T11:06:02;33.87;;;18.00;;
6626;SDS011;3349;49.830;8.748;2024-01-10T11:08:30;36.30;;;19.07;;
6626;SDS011;3349;49.830;8.748;2024-01-10T11:11:01;36.93;;;19.40;;
6626;SDS011;3349;49.830;8.748;2024-01-10T11:13:35;36.33;;;18.67;;
6626;SDS011;3349;49.830;8.748;2024-01-10T11:16:24;34.03;;;17.63;;
6626;SDS011;3349;49.830;8.748;2024-01-10T11:22:10;31.80;;;17.30;;
6626;SDS011;3349;49.830;8.748;2024-01-10T11:24:48;35.77;;;17.77;;
6626;SDS011;3349;49.830;8.748;2024-01-10T11:27:15;25.57;;;15.43;;
6626;SDS011;3349;49.830;8.748;2024-01-10T11:29:42;28.73;;;17.00;;
6626;SDS011;3349;49.830;8.748;2024-01-10T11:32:14;30.13;;;16.73;;
6626;SDS011;3349;49.830;8.748;2024-01-10T11:34:48;29.20;;;17.00;;
6626;SDS011;3349;49.830;8.748;2024-01-10T11:37:20;31.60;;;16.57;;
6626;SDS011;3349;49.830;8.748;2024-01-10T11:39:47;30.67;;;16.70;;
6626;SDS011;3349;49.830;8.748;2024-01-10T11:42:21;31.87;;;17.47;;
6626;SDS011;3349;49.830;8.748;2024-01-10T11:44:48;33.37;;;17.63;;
6626;SDS011;3349;49.830;8.748;2024-01-10T11:47:17;30.33;;;17.73;;
6626;SDS011;3349;49.830;8.748;2024-01-10T11:49:53;29.53;;;16.00;;
6626;SDS011;3349;49.830;8.748;2024-01-10T11:52:21;30.77;;;16.40;;
6626;SDS011;3349;49.830;8.748;2024-01-10T11:54:48;28.70;;;16.50;;
6626;SDS011;3349;49.830;8.748;2024-01-10T11:57:18;33.85;;;17.33;;
6626;SDS011;3349;49.830;8.748;2024-01-10T11:59:47;27.27;;;16.40;;
6626;SDS011;3349;49.830;8.748;2024-01-10T12:02:17;28.92;;;15.80;;
6626;SDS011;3349;49.830;8.748;2024-01-10T12:04:44;27.23;;;15.60;;
6626;SDS011;3349;49.830;8.748;2024-01-10T12:07:11;26.85;;;16.00;;
6626;SDS011;3349;49.830;8.748;2024-01-10T12:09:38;25.90;;;15.98;;
6626;SDS011;3349;49.830;8.748;2024-01-10T12:12:07;29.45;;;16.67;;
6626;SDS011;3349;49.830;8.748;2024-01-10T12:14:34;33.00;;;17.17;;
6626;SDS011;3349;49.830;8.748;2024-01-10T12:17:01;28.05;;;17.52;;
6626;SDS011;3349;49.830;8.748;2024-01-10T12:19:30;25.33;;;17.02;;
6626;SDS011;3349;49.830;8.748;2024-01-10T12:21:57;26.52;;;18.45;;
6626;SDS011;3349;49.830;8.748;2024-01-10T12:24:24;27.33;;;18.85;;
6626;SDS011;3349;49.830;8.748;2024-01-10T12:26:54;29.60;;;19.67;;
6626;SDS011;3349;49.830;8.748;2024-01-10T12:29:21;27.38;;;19.23;;
6626;SDS011;3349;49.830;8.748;2024-01-10T12:31:50;29.35;;;19.95;;
6626;SDS011;3349;49.830;8.748;2024-01-10T12:34:17;28.67;;;20.27;;
6626;SDS011;3349;49.830;8.748;2024-01-10T12:36:45;25.35;;;19.60;;
6626;SDS011;3349;49.830;8.748;2024-01-10T12:39:12;25.20;;;18.15;;
6626;SDS011;3349;49.830;8.748;2024-01-10T12:41:40;28.27;;;21.15;;
6626;SDS011;3349;49.830;8.748;2024-01-10T12:44:07;39.53;;;24.30;;
6626;SDS011;3349;49.830;8.748;2024-01-10T12:46:33;25.80;;;20.27;;
6626;SDS011;3349;49.830;8.748;2024-01-10T12:49:00;25.90;;;19.65;;
6626;SDS011;3349;49.830;8.748;2024-01-10T12:51:28;26.42;;;19.10;;
6626;SDS011;3349;49.830;8.748;2024-01-10T12:53:58;27.08;;;20.25;;
6626;SDS011;3349;49.830;8.748;2024-01-10T12:56:25;27.70;;;19.48;;
6626;SDS011;3349;49.830;8.748;2024-01-10T12:58:53;22.67;;;18.08;;
6626;SDS011;3349;49.830;8.748;2024-01-10T13:01:20;25.38;;;18.88;;
6626;SDS011;3349;49.830;8.748;2024-01-10T13:03:47;22.70;;;17.38;;
6626;SDS011;3349;49.830;8.748;2024-01-10T13:06:14;24.73;;;18.77;;
6626;SDS011;3349;49.830;8.748;2024-01-10T13:08:42;26.13;;;18.17;;
6626;SDS011;3349;49.830;8.748;2024-01-10T13:11:10;26.35;;;16.90;;
6626;SDS011;3349;49.830;8.748;2024-01-10T13:13:39;25.95;;;17.73;;
6626;SDS011;3349;49.830;8.748;2024-01-10T13:16:06;26.85;;;17.80;;
6626;SDS011;3349;49.830;8.748;2024-01-10T13:18:35;24.55;;;16.73;;
6626;SDS011;3349;49.830;8.748;2024-01-10T13:21:02;28.10;;;17.63;;
6626;SDS011;3349;49.830;8.748;2024-01-10T13:23:29;28.27;;;16.42;;
6626;SDS011;3349;49.830;8.748;2024-01-10T13:25:56;26.83;;;15.45;;
6626;SDS011;3349;49.830;8.748;2024-01-10T13:28:25;27.73;;;15.95;;
6626;SDS011;3349;49.830;8.748;2024-01-10T13:30:52;23.27;;;14.38;;
6626;SDS011;3349;49.830;8.748;2024-01-10T13:33:21;26.73;;;15.60;;
6626;SDS011;3349;49.830;8.748;2024-01-10T13:35:47;24.35;;;14.82;;
6626;SDS011;3349;49.830;8.748;2024-01-10T13:38:14;25.05;;;15.80;;
6626;SDS011;3349;49.830;8.748;2024-01-10T13:40:42;25.63;;;14.88;;
6626;SDS011;3349;49.830;8.748;2024-01-10T13:43:09;25.48;;;15.13;;
6626;SDS011;3349;49.830;8.748;2024-01-10T13:45:37;29.73;;;15.23;;
6626;SDS011;3349;49.830;8.748;2024-01-10T13:48:04;29.50;;;16.27;;
6626;SDS011;3349;49.830;8.748;2024-01-10T13:50:31;24.67;;;15.18;;
6626;SDS011;3349;49.830;8.748;2024-01-10T13:52:57;31.50;;;16.17;;
6626;SDS011;3349;49.830;8.748;2024-01-10T13:55:24;26.10;;;16.13;;
6626;SDS011;3349;49.830;8.748;2024-01-10T13:57:51;26.40;;;15.10;;
6626;SDS011;3349;49.830;8.748;2024-01-10T14:00:19;26.90;;;15.13;;
6626;SDS011;3349;49.830;8.748;2024-01-10T14:02:47;25.37;;;15.20;;
6626;SDS011;3349;49.830;8.748;2024-01-10T14:05:14;24.53;;;14.33;;
6626;SDS011;3349;49.830;8.748;2024-01-10T14:07:41;25.77;;;15.20;;
6626;SDS011;3349;49.830;8.748;2024-01-10T14:10:09;26.20;;;15.23;;
6626;SDS011;3349;49.830;8.748;2024-01-10T14:12:38;26.73;;;14.50;;
6626;SDS011;3349;49.830;8.748;2024-01-10T14:15:05;24.17;;;14.43;;
6626;SDS011;3349;49.830;8.748;2024-01-10T14:17:32;25.33;;;14.43;;
6626;SDS011;3349;49.830;8.748;2024-01-10T14:20:00;28.00;;;15.47;;
6626;SDS011;3349;49.830;8.748;2024-01-10T14:22:26;24.87;;;13.67;;
6626;SDS011;3349;49.830;8.748;2024-01-10T14:24:53;27.07;;;14.67;;
6626;SDS011;3349;49.830;8.748;2024-01-10T14:27:20;30.30;;;15.13;;
6626;SDS011;3349;49.830;8.748;2024-01-10T14:29:47;25.40;;;15.00;;
6626;SDS011;3349;49.830;8.748;2024-01-10T14:32:13;27.17;;;14.70;;
6626;SDS011;3349;49.830;8.748;2024-01-10T14:34:40;27.93;;;15.80;;
6626;SDS011;3349;49.830;8.748;2024-01-10T14:37:08;26.13;;;14.73;;
6626;SDS011;3349;49.830;8.748;2024-01-10T14:39:35;27.90;;;15.90;;
6626;SDS011;3349;49.830;8.748;2024-01-10T14:42:04;26.37;;;15.93;;
6626;SDS011;3349;49.830;8.748;2024-01-10T14:44:31;27.30;;;15.07;;
6626;SDS011;3349;49.830;8.748;2024-01-10T14:46:59;26.57;;;14.93;;
6626;SDS011;3349;49.830;8.748;2024-01-10T14:49:25;24.67;;;15.33;;
6626;SDS011;3349;49.830;8.748;2024-01-10T14:51:52;26.17;;;15.27;;